Time;durP1;ratioP1;P1;durP2;ratioP2;P2;SDS_P1;SDS_P2;PMS_P1;PMS_P2;Temp;Humidity;BMP_temperature;BMP_pressure;BME280_temperature;BME280_humidity;BME280_pressure;Samples;Min_cycle;Max_cycle;Signal;HPM_P1;HPM_P2
2022/10/21 00:00:48;;;;;;;4.40;4.00;;;;;;;5.78;89.49;101809.72;4918326;29;20032;-72
2022/10/21 00:03:14;;;;;;;4.57;4.17;;;;;;;5.71;89.16;101802.31;4918334;29;20099;-71
2022/10/21 00:05:39;;;;;;;4.60;4.10;;;;;;;5.68;89.46;101787.50;4918461;29;20462;-71
2022/10/21 00:08:08;;;;;;;5.10;4.70;;;;;;;5.62;90.05;101787.94;4916715;29;20139;-72
2022/10/21 00:11:01;;;;;;;6.37;4.27;;;;;;;5.56;89.98;101780.44;4917058;29;20514;-72
2022/10/21 00:13:29;;;;;;;5.65;4.80;;;;;;;5.51;90.04;101790.47;4917034;29;20040;-73
2022/10/21 00:16:06;;;;;;;6.35;4.68;;;;;;;5.32;90.80;101771.53;4916795;29;20123;-72
2022/10/21 00:18:33;;;;;;;5.37;4.87;;;;;;;5.32;91.06;101788.22;4916873;29;20028;-71
2022/10/21 00:20:59;;;;;;;5.67;4.97;;;;;;;5.35;91.22;101795.09;4916794;29;20028;-73
2022/10/21 00:23:25;;;;;;;5.43;4.93;;;;;;;5.37;91.44;101798.47;4916813;29;20057;-73
2022/10/21 00:25:58;;;;;;;5.70;5.13;;;;;;;5.40;90.85;101796.47;4916844;29;20043;-71
2022/10/21 00:28:23;;;;;;;6.10;4.90;;;;;;;5.15;90.87;101752.38;4916778;29;20369;-73
2022/10/21 00:30:49;;;;;;;7.63;5.07;;;;;;;5.43;91.30;101792.78;4916628;29;20154;-72
2022/10/21 00:33:15;;;;;;;5.50;5.00;;;;;;;5.50;91.05;101794.91;4916529;29;20097;-73
2022/10/21 00:35:40;;;;;;;6.57;5.83;;;;;;;5.54;90.31;101792.91;4916600;29;20126;-72
2022/10/21 00:38:06;;;;;;;6.53;5.63;;;;;;;5.63;90.99;101797.56;4916920;29;20035;-74
2022/10/21 00:40:37;;;;;;;6.70;5.53;;;;;;;5.70;90.24;101788.25;4916426;29;20048;-74
2022/10/21 00:43:03;;;;;;;7.33;5.67;;;;;;;5.73;90.99;101792.47;4916507;29;20032;-72
2022/10/21 00:45:29;;;;;;;6.10;5.50;;;;;;;5.63;90.47;101781.69;4916506;29;20046;-74
2022/10/21 00:48:08;;;;;;;7.63;5.47;;;;;;;5.70;90.53;101788.25;4916299;29;20027;-72
2022/10/21 00:51:15;;;;;;;6.30;4.93;;;;;;;5.79;91.07;101787.63;4916552;29;20044;-71
2022/10/21 00:53:45;;;;;;;5.70;4.43;;;;;;;5.80;91.00;101786.69;4895344;29;20063;-74
2022/10/21 00:56:14;;;;;;;6.57;5.80;;;;;;;5.79;89.76;101774.41;4896439;29;20039;-73
2022/10/21 00:58:39;;;;;;;4.63;3.97;;;;;;;5.77;90.05;101783.38;4916282;29;20032;-73
2022/10/21 01:01:06;;;;;;;4.50;4.07;;;;;;;5.72;89.74;101778.41;4916239;29;20034;-75
2022/10/21 01:03:33;;;;;;;4.07;3.70;;;;;;;5.67;89.88;101780.53;4916423;29;20024;-73
2022/10/21 01:06:01;;;;;;;4.53;4.03;;;;;;;5.62;90.71;101782.66;4916273;29;20039;-73
2022/10/21 01:08:28;;;;;;;;;;;;;;;5.62;90.31;101782.66;4533288;29;10963585;-76
2022/10/21 01:10:55;;;;;;;4.17;3.70;;;;;;;5.54;90.88;101777.06;4912169;29;20292;-73
2022/10/21 01:13:53;;;;;;;4.33;3.93;;;;;;;5.62;91.87;101787.94;4917063;29;20128;-74
2022/10/21 01:16:39;;;;;;;4.40;4.00;;;;;;;5.60;90.98;101789.84;4916958;29;20078;-72
2022/10/21 01:19:34;;;;;;;4.77;4.00;;;;;;;5.60;91.51;101779.28;4916530;29;20112;-73
2022/10/21 01:22:13;;;;;;;5.53;4.40;;;;;;;5.57;92.06;101782.13;4916824;29;20036;-74
2022/10/21 01:25:00;;;;;;;5.37;4.87;;;;;;;5.51;91.71;101777.28;4916903;29;20032;-73
2022/10/21 01:27:50;;;;;;;5.43;4.57;;;;;;;5.34;92.35;101773.13;4916607;29;20075;-73
2022/10/21 01:30:16;;;;;;;5.33;4.50;;;;;;;5.33;92.57;101770.59;4916785;29;20033;-74
2022/10/21 01:33:16;;;;;;;4.37;3.97;;;;;;;5.37;92.81;101777.34;4916844;29;20092;-73
2022/10/21 01:35:53;;;;;;;4.77;4.03;;;;;;;5.42;92.76;101770.78;4903425;29;20054;-75
2022/10/21 01:38:43;;;;;;;4.23;3.83;;;;;;;5.40;92.43;101772.69;4917166;29;20028;-71
2022/10/21 01:41:15;;;;;;;4.67;4.27;;;;;;;5.45;92.48;101780.31;4917434;29;20163;-73
2022/10/21 01:44:03;;;;;;;5.27;4.73;;;;;;;5.48;92.84;101765.09;4917712;29;20028;-74
2022/10/21 01:46:36;;;;;;;5.22;4.70;;;;;;;5.54;91.38;101777.06;4919354;29;20050;-72
2022/10/21 01:49:10;;;;;;;4.93;4.50;;;;;;;5.52;91.33;101771.88;4919698;29;20472;-72
2022/10/21 01:51:36;;;;;;;7.00;4.90;;;;;;;5.53;91.39;101778.84;4902015;29;20034;-73
2022/10/21 01:54:09;;;;;;;5.70;5.13;;;;;;;5.52;91.45;101777.16;4917649;29;20496;-72
2022/10/21 01:56:37;;;;;;;5.83;4.30;;;;;;;5.55;91.74;101786.69;4917096;29;20028;-70
2022/10/21 01:59:05;;;;;;;5.18;4.68;;;;;;;5.58;91.00;101782.03;4916348;29;20032;-71
2022/10/21 02:01:32;;;;;;;6.33;4.30;;;;;;;5.62;91.16;101798.50;4915963;29;20039;-72
2022/10/21 02:04:01;;;;;;;4.23;3.70;;;;;;;5.59;90.21;101789.00;4916134;29;20059;-70
2022/10/21 02:06:27;;;;;;;4.30;3.90;;;;;;;5.58;90.33;101786.47;4915906;29;20317;-73
2022/10/21 02:08:54;;;;;;;5.03;4.47;;;;;;;5.56;90.33;101783.94;4915622;29;20052;-71
2022/10/21 02:11:20;;;;;;;5.33;4.83;;;;;;;5.51;90.31;101780.75;4915553;29;20120;-73
2022/10/21 02:13:48;;;;;;;4.73;4.33;;;;;;;5.57;91.08;101790.91;4915893;29;20477;-73
2022/10/21 02:16:20;;;;;;;5.10;4.57;;;;;;;5.52;90.43;101787.72;4898852;29;20426;-73
2022/10/21 02:18:46;;;;;;;5.43;4.50;;;;;;;5.45;90.37;101773.22;4899091;29;20441;-71
2022/10/21 02:21:24;;;;;;;5.23;4.40;;;;;;;5.38;90.10;101748.19;4915627;29;20143;-71
2022/10/21 02:23:53;;;;;;;5.40;4.90;;;;;;;5.53;90.12;101772.72;4915658;29;20035;-72
2022/10/21 02:26:21;;;;;;;5.28;4.78;;;;;;;5.52;89.26;101760.47;4915646;29;20032;-73
2022/10/21 02:28:47;;;;;;;4.87;4.40;;;;;;;5.48;90.17;101764.25;4915755;29;20021;-74
2022/10/21 02:31:25;;;;;;;6.33;4.53;;;;;;;5.47;90.72;101768.69;4915676;29;20028;-72
2022/10/21 02:33:51;;;;;;;;;;;;;;;5.56;90.31;101780.44;4919940;29;20039;-72
2022/10/21 02:36:29;;;;;;;4.80;4.40;;;;;;;5.51;89.81;101778.13;4919469;29;19910;-72
2022/10/21 02:39:01;;;;;;;6.85;5.43;;;;;;;5.55;90.22;101784.03;4919550;29;20063;-72
2022/10/21 02:41:55;;;;;;;5.60;5.10;;;;;;;5.46;89.81;101788.13;4919823;29;20051;-71
2022/10/21 02:44:21;;;;;;;6.03;5.43;;;;;;;5.45;89.95;101788.22;4919374;29;20488;-71
2022/10/21 02:46:47;;;;;;;7.83;5.60;;;;;;;5.39;89.57;101796.56;4919232;29;20288;-72
2022/10/21 02:49:12;;;;;;;5.40;4.90;;;;;;;5.44;89.99;101795.31;4919387;29;20491;-72
2022/10/21 02:51:40;;;;;;;5.67;5.13;;;;;;;5.43;89.79;101803.34;4919426;29;20040;-73
2022/10/21 02:54:05;;;;;;;5.80;5.30;;;;;;;5.44;89.91;101797.94;4919453;29;20028;-75
2022/10/21 02:56:31;;;;;;;7.30;5.90;;;;;;;5.45;90.20;101785.59;4919281;29;20031;-73
2022/10/21 02:58:56;;;;;;;6.80;6.10;;;;;;;5.38;89.93;101769.31;4902388;29;20055;-72
2022/10/21 03:01:22;;;;;;;6.90;6.23;;;;;;;5.47;90.37;101778.41;4919123;29;20035;-73
2022/10/21 03:03:47;;;;;;;6.30;5.60;;;;;;;5.47;89.95;101775.75;4919209;29;20024;-71
2022/10/21 03:06:13;;;;;;;5.73;5.20;;;;;;;5.49;89.51;101771.22;4919242;29;20460;-73
2022/10/21 03:08:38;;;;;;;6.70;5.93;;;;;;;5.53;89.94;101778.00;4918878;29;20135;-73
2022/10/21 03:11:04;;;;;;;6.33;5.73;;;;;;;5.50;89.68;101773.78;4918915;29;20119;-74
2022/10/21 03:13:30;;;;;;;7.10;6.40;;;;;;;5.44;89.60;101774.19;4918976;29;20079;-74
2022/10/21 03:15:56;;;;;;;8.87;6.60;;;;;;;5.38;90.15;101785.16;4918778;29;20036;-73
2022/10/21 03:18:21;;;;;;;6.57;5.97;;;;;;;5.43;90.22;101774.28;4918960;29;20032;-72
2022/10/21 03:20:50;;;;;;;7.50;6.13;;;;;;;5.36;89.72;101758.00;4918983;29;20036;-70
2022/10/21 03:23:17;;;;;;;8.73;5.97;;;;;;;5.43;90.32;101766.34;4918800;29;20594;-72
2022/10/21 03:25:43;;;;;;;6.30;5.70;;;;;;;5.50;90.23;101778.22;4918689;29;20360;-72
2022/10/21 03:28:09;;;;;;;7.07;6.23;;;;;;;5.45;89.74;101775.88;4918724;29;20072;-72
2022/10/21 03:30:34;;;;;;;6.83;5.93;;;;;;;5.43;89.73;101766.34;4918475;29;20028;-72
2022/10/21 03:33:00;;;;;;;6.37;5.77;;;;;;;5.41;89.79;101773.53;4901689;29;20495;-70
2022/10/21 03:35:26;;;;;;;7.00;6.30;;;;;;;5.14;90.51;101736.66;4918654;29;20036;-71
2022/10/21 03:37:51;;;;;;;6.50;5.80;;;;;;;5.28;90.13;101768.25;4918476;29;20032;-72
2022/10/21 03:40:17;;;;;;;9.67;6.30;;;;;;;5.38;90.77;101779.88;4918374;29;20376;-71
2022/10/21 03:42:43;;;;;;;6.53;5.80;;;;;;;5.40;90.65;101767.41;4918151;29;20083;-71
2022/10/21 03:45:09;;;;;;;8.07;5.60;;;;;;;5.45;90.15;101764.44;4918138;29;20028;-73
2022/10/21 03:47:35;;;;;;;8.03;6.23;;;;;;;5.44;90.08;101752.19;4918473;29;20464;-72
2022/10/21 03:50:00;;;;;;;8.63;7.17;;;;;;;5.54;90.45;101761.19;4918204;29;20028;-73
2022/10/21 03:52:25;;;;;;;8.33;6.53;;;;;;;5.60;90.00;101758.13;4918248;29;20024;-72
2022/10/21 03:54:51;;;;;;;7.87;6.17;;;;;;;5.63;89.72;101752.63;4918200;29;20051;-72
2022/10/21 03:57:16;;;;;;;8.20;6.07;;;;;;;5.65;89.55;101757.81;4901136;29;20027;-73
2022/10/21 03:59:42;;;;;;;9.00;6.73;;;;;;;5.36;89.68;101712.25;4918004;29;20028;-72
2022/10/21 04:02:07;;;;;;;6.50;5.77;;;;;;;5.56;90.50;101746.09;4918452;29;20028;-71
2022/10/21 04:04:33;;;;;;;6.90;6.20;;;;;;;5.62;89.77;101756.22;4917792;29;20398;-70
2022/10/21 04:07:00;;;;;;;7.73;6.40;;;;;;;5.58;89.11;101738.91;4917790;29;20036;-72
2022/10/21 04:09:28;;;;;;;6.00;5.40;;;;;;;5.69;88.97;101749.56;4919834;29;20174;-71
2022/10/21 04:11:53;;;;;;;6.53;5.80;;;;;;;5.70;89.48;101756.53;4918170;29;20508;-72
2022/10/21 04:14:18;;;;;;;7.67;5.57;;;;;;;5.70;88.87;101745.97;4917746;29;20032;-74
2022/10/21 04:16:44;;;;;;;7.37;5.43;;;;;;;5.60;88.76;101729.06;4917909;29;20024;-71
2022/10/21 04:19:16;;;;;;;7.43;6.10;;;;;;;5.66;89.29;101738.34;4918028;29;20528;-70
2022/10/21 04:21:41;;;;;;;7.07;6.20;;;;;;;5.59;88.75;101748.50;4917892;29;20032;-71
2022/10/21 04:24:07;;;;;;;8.53;6.50;;;;;;;5.53;89.06;101747.16;4917852;29;20465;-70
2022/10/21 04:26:32;;;;;;;6.77;6.07;;;;;;;5.50;89.77;101750.00;4917686;29;20032;-70
2022/10/21 04:28:58;;;;;;;6.90;5.77;;;;;;;5.54;89.57;101738.25;4917420;29;20554;-72
2022/10/21 04:31:23;;;;;;;7.10;6.40;;;;;;;5.54;89.63;101750.63;4918106;29;20097;-70
2022/10/21 04:33:50;;;;;;;8.20;6.70;;;;;;;5.53;89.56;101757.72;4917825;29;20036;-72
2022/10/21 04:36:16;;;;;;;7.23;6.27;;;;;;;5.45;90.43;101749.44;4917510;29;20051;-75
2022/10/21 04:38:42;;;;;;;7.53;6.23;;;;;;;5.32;90.69;101727.47;4917683;29;20028;-71
2022/10/21 04:41:08;;;;;;;8.07;7.10;;;;;;;5.36;90.14;101743.97;4917112;29;20047;-79
2022/10/21 04:43:35;;;;;;;6.47;5.80;;;;;;;5.30;90.16;101739.94;4917485;29;20043;-72
2022/10/21 04:46:01;;;;;;;5.60;5.10;;;;;;;5.24;90.83;101741.22;4917703;29;20080;-71
2022/10/21 04:48:26;;;;;;;7.57;6.20;;;;;;;5.24;90.67;101741.22;4917836;29;20035;-69
2022/10/21 04:50:53;;;;;;;6.73;6.03;;;;;;;5.27;91.11;101734.88;4917484;29;20475;-71
2022/10/21 04:53:20;;;;;;;7.53;5.83;;;;;;;5.26;90.85;101741.97;4917139;29;20457;-73
2022/10/21 04:55:49;;;;;;;8.10;6.10;;;;;;;5.26;91.16;101747.25;4916355;29;20043;-74
2022/10/21 04:58:15;;;;;;;9.73;7.23;;;;;;;5.23;91.59;101728.13;4917487;29;20063;-72
2022/10/21 05:00:40;;;;;;;6.97;5.97;;;;;;;5.32;90.78;101738.03;4916972;29;20757;-72
2022/10/21 05:03:06;;;;;;;6.83;5.40;;;;;;;5.40;90.58;101750.72;4917231;29;20028;-72
2022/10/21 05:05:31;;;;;;;6.17;5.57;;;;;;;5.46;90.03;101758.22;4917032;29;20115;-72
2022/10/21 05:07:57;;;;;;;8.03;6.07;;;;;;;5.49;90.16;101756.25;4921589;29;20051;-73
2022/10/21 05:10:29;;;;;;;10.27;5.77;;;;;;;5.55;89.94;101760.25;4917837;29;20087;-73
2022/10/21 05:12:57;;;;;;;9.80;6.30;;;;;;;5.57;89.82;101761.84;4917540;29;20079;-72
2022/10/21 05:15:24;;;;;;;8.40;5.57;;;;;;;5.54;89.80;101758.56;4917865;29;20024;-73
2022/10/21 05:17:50;;;;;;;10.97;7.67;;;;;;;5.45;90.14;101761.81;4916473;29;20500;-76
2022/10/21 05:20:16;;;;;;;7.20;5.60;;;;;;;5.42;90.20;101757.59;4916664;29;20388;-73
2022/10/21 05:22:41;;;;;;;8.80;5.93;;;;;;;5.39;90.21;101744.59;4916598;29;20035;-71
2022/10/21 05:25:07;;;;;;;6.77;5.47;;;;;;;5.47;90.07;101746.69;4916219;29;20401;-72
2022/10/21 05:27:34;;;;;;;12.30;6.20;;;;;;;5.42;90.34;101756.75;4899886;29;20385;-72
2022/10/21 05:29:59;;;;;;;9.57;6.10;;;;;;;5.41;90.43;101742.69;4916584;29;20032;-74
2022/10/21 05:32:25;;;;;;;10.27;6.60;;;;;;;5.36;89.99;101749.25;4899632;29;20036;-67
2022/10/21 05:34:50;;;;;;;8.17;5.87;;;;;;;5.33;90.13;101771.44;4916362;29;20027;-76
2022/10/21 05:37:16;;;;;;;8.37;6.10;;;;;;;5.24;90.98;101757.06;4916494;29;20036;-71
2022/10/21 05:39:41;;;;;;;7.37;5.93;;;;;;;5.25;91.00;101750.84;4899457;29;20028;-73
2022/10/21 05:42:07;;;;;;;8.97;6.47;;;;;;;5.25;91.91;101776.41;4916438;29;20035;-72
2022/10/21 05:44:33;;;;;;;12.27;6.30;;;;;;;5.22;92.22;101763.41;4916860;29;20119;-71
2022/10/21 05:46:58;;;;;;;7.23;6.10;;;;;;;5.22;92.23;101766.03;4916431;29;20039;-73
2022/10/21 05:49:24;;;;;;;9.10;6.47;;;;;;;5.27;92.99;101771.84;4916195;29;20489;-72
2022/10/21 05:51:49;;;;;;;6.97;5.57;;;;;;;5.38;91.45;101779.03;4916224;29;20036;-73
2022/10/21 05:54:15;;;;;;;9.23;5.10;;;;;;;5.53;90.79;101778.00;4916184;29;20177;-72
2022/10/21 05:56:41;;;;;;;10.47;5.27;;;;;;;5.64;90.25;101783.38;4899685;29;20032;-72
2022/10/21 05:59:08;;;;;;;11.80;5.63;;;;;;;5.71;90.01;101775.88;4916958;29;20039;-72
2022/10/21 06:01:33;;;;;;;7.87;5.87;;;;;;;5.79;89.04;101787.63;4916384;29;20490;-72
2022/10/21 06:03:59;;;;;;;7.83;5.43;;;;;;;5.84;89.13;101782.84;4916035;29;20119;-74
2022/10/21 06:06:24;;;;;;;10.70;5.23;;;;;;;5.93;88.81;101797.25;4915992;29;20055;-74
2022/10/21 06:08:50;;;;;;;6.77;5.00;;;;;;;5.89;88.85;101786.06;4916156;29;20083;-73
2022/10/21 06:11:19;;;;;;;10.93;5.87;;;;;;;5.89;88.72;101790.47;4915656;29;20127;-74
2022/10/21 06:13:45;;;;;;;9.50;5.33;;;;;;;5.72;89.13;101767.84;4915027;29;20124;-74
2022/10/21 06:16:12;;;;;;;15.53;6.43;;;;;;;5.81;90.13;101782.22;4914970;29;20127;-74
2022/10/21 06:18:39;;;;;;;6.47;5.30;;;;;;;5.84;89.94;101777.56;4914944;29;20039;-72
2022/10/21 06:21:04;;;;;;;6.73;5.00;;;;;;;5.92;90.21;101785.00;4915319;29;20024;-75
2022/10/21 06:23:30;;;;;;;6.53;4.93;;;;;;;6.01;88.62;101788.78;4916183;29;20043;-74
2022/10/21 06:26:07;;;;;;;5.93;4.83;;;;;;;5.99;87.97;101774.81;4898540;29;20038;-74
2022/10/21 06:28:35;;;;;;;5.30;4.63;;;;;;;6.22;87.69;101792.56;4916193;29;20032;-73
2022/10/21 06:31:00;;;;;;;6.13;5.30;;;;;;;6.29;87.06;101793.81;4915782;29;20042;-72
2022/10/21 06:33:26;;;;;;;9.17;5.77;;;;;;;6.18;86.91;101764.63;4915823;29;20032;-72
2022/10/21 06:35:52;;;;;;;7.33;5.97;;;;;;;6.37;87.23;101795.91;4915713;29;20111;-72
2022/10/21 06:38:17;;;;;;;7.57;4.43;;;;;;;6.38;86.89;101793.16;4916033;29;20055;-73
2022/10/21 06:40:44;;;;;;;5.70;4.40;;;;;;;6.38;87.08;101792.31;4915866;29;20070;-72
2022/10/21 06:43:09;;;;;;;6.87;4.50;;;;;;;6.33;86.69;101782.03;4915941;29;20076;-72
2022/10/21 06:45:35;;;;;;;8.40;4.57;;;;;;;6.28;87.53;101791.25;4915881;29;20028;-73
2022/10/21 06:48:01;;;;;;;12.10;5.43;;;;;;;6.17;87.21;101789.41;4915942;29;20059;-73
2022/10/21 06:50:26;;;;;;;7.83;6.17;;;;;;;6.16;88.33;101785.06;4915365;29;20131;-72
2022/10/21 06:52:52;;;;;;;7.13;5.27;;;;;;;6.20;87.35;101797.97;4915655;29;20042;-73
2022/10/21 06:55:18;;;;;;;9.73;5.67;;;;;;;6.26;87.49;101783.44;4915878;29;20048;-75
2022/10/21 06:57:43;;;;;;;6.63;5.47;;;;;;;6.30;86.97;101795.50;4916161;29;20079;-74
2022/10/21 07:00:10;;;;;;;11.60;5.30;;;;;;;6.16;87.03;101770.03;4916145;29;20032;-73
2022/10/21 07:02:36;;;;;;;9.00;5.60;;;;;;;6.33;87.08;101770.63;4915538;29;20035;-73
2022/10/21 07:05:02;;;;;;;7.93;6.07;;;;;;;6.47;86.50;101784.56;4915439;29;20024;-73
2022/10/21 07:07:30;;;;;;;7.87;5.20;;;;;;;6.50;86.24;101792.25;4915508;29;20147;-71
2022/10/21 07:09:56;;;;;;;11.63;5.57;;;;;;;6.64;85.65;101793.03;4915578;29;20473;-72
2022/10/21 07:12:24;;;;;;;9.77;5.60;;;;;;;6.70;85.34;101782.03;4898607;29;20123;-73
2022/10/21 07:14:50;;;;;;;7.35;5.50;;;;;;;6.70;84.48;101782.88;4914683;29;20040;-72
2022/10/21 07:17:16;;;;;;;8.83;5.33;;;;;;;6.59;85.07;101779.31;4914905;29;20441;-73
2022/10/21 07:19:42;;;;;;;10.73;5.40;;;;;;;6.62;86.74;101779.09;4918125;29;20036;-73
2022/10/21 07:22:08;;;;;;;19.47;9.13;;;;;;;6.69;85.12;101783.84;4901374;29;20433;-70
2022/10/21 07:24:34;;;;;;;12.10;6.97;;;;;;;6.69;85.69;101780.34;4918633;29;20038;-74
2022/10/21 07:27:00;;;;;;;10.73;6.63;;;;;;;6.66;85.83;101781.41;4901714;29;20421;-72
2022/10/21 07:29:26;;;;;;;10.87;6.30;;;;;;;6.68;85.53;101783.94;4918652;29;20508;-73
2022/10/21 07:31:52;;;;;;;10.87;6.33;;;;;;;6.80;85.16;101785.69;4918311;29;20031;-75
2022/10/21 07:34:18;;;;;;;10.00;6.53;;;;;;;6.91;84.49;101796.31;4918265;29;20028;-72
2022/10/21 07:36:51;;;;;;;9.87;5.80;;;;;;;6.92;84.68;101792.72;4901490;29;20071;-73
2022/10/21 07:39:20;;;;;;;12.03;7.53;;;;;;;7.07;84.81;101788.94;4918344;29;20028;-74
2022/10/21 07:41:48;;;;;;;13.73;7.03;;;;;;;7.39;83.73;101785.66;4918329;29;20090;-75
2022/10/21 07:44:15;;;;;;;12.05;7.80;;;;;;;7.56;82.27;101787.03;4918440;29;20027;-77
2022/10/21 07:46:42;;;;;;;10.37;5.97;;;;;;;7.66;81.54;101786.19;4917988;29;20044;-76
2022/10/21 07:49:09;;;;;;;12.20;5.97;;;;;;;7.62;81.59;101784.75;4918306;29;20468;-76
2022/10/21 07:51:35;;;;;;;8.50;5.20;;;;;;;7.50;81.49;101772.41;4917834;29;20472;-77
2022/10/21 07:54:01;;;;;;;8.77;5.67;;;;;;;7.49;82.66;101796.38;4918367;29;20038;-76
2022/10/21 07:56:30;;;;;;;7.50;4.43;;;;;;;7.50;81.82;101780.34;4917835;29;20032;-75
2022/10/21 07:58:56;;;;;;;15.70;12.30;;;;;;;7.59;82.04;101792.94;4917908;29;20039;-76
2022/10/21 08:01:22;;;;;;;14.00;7.43;;;;;;;7.75;81.20;101803.19;4917904;29;20024;-75
2022/10/21 08:03:48;;;;;;;9.93;7.10;;;;;;;7.75;80.87;101801.38;4918077;29;20124;-76
2022/10/21 08:06:16;;;;;;;5.90;5.00;;;;;;;7.72;80.38;101798.97;4918062;29;20032;-77
2022/10/21 08:08:43;;;;;;;7.60;5.90;;;;;;;7.69;80.64;101799.19;4917885;29;20048;-75
2022/10/21 08:11:18;;;;;;;6.97;5.90;;;;;;;7.66;80.26;101785.34;4917199;29;20075;-75
2022/10/21 08:13:44;;;;;;;8.07;6.30;;;;;;;7.64;80.49;101790.75;4918411;29;20028;-75
2022/10/21 08:16:09;;;;;;;9.87;6.30;;;;;;;7.51;81.26;101775.91;4917853;29;20035;-76
2022/10/21 08:18:35;;;;;;;7.70;5.83;;;;;;;7.58;81.06;101780.63;4917516;29;20083;-75
2022/10/21 08:21:02;;;;;;;7.23;6.47;;;;;;;7.68;80.99;101770.16;4917486;29;20071;-74
2022/10/21 08:23:28;;;;;;;9.63;6.57;;;;;;;7.82;79.90;101769.09;4917701;29;20028;-76
2022/10/21 08:25:56;;;;;;;8.80;5.40;;;;;;;7.94;80.33;101773.44;4917740;29;20031;-76
2022/10/21 08:28:23;;;;;;;12.15;5.75;;;;;;;8.01;79.42;101771.97;4917609;29;20132;-76
2022/10/21 08:30:49;;;;;;;9.03;6.00;;;;;;;8.05;79.69;101768.94;4916346;29;20040;-76
2022/10/21 08:33:14;;;;;;;8.83;5.90;;;;;;;8.07;78.77;101766.16;4917251;29;20028;-75
2022/10/21 08:35:41;;;;;;;6.80;6.03;;;;;;;7.71;79.04;101725.69;4917305;29;20040;-76
2022/10/21 08:38:07;;;;;;;6.10;5.50;;;;;;;7.91;79.47;101763.06;4917192;29;20040;-75
2022/10/21 08:40:50;;;;;;;9.40;5.57;;;;;;;7.94;80.46;101766.31;4917167;29;20115;-77
2022/10/21 08:43:25;;;;;;;9.07;5.50;;;;;;;8.01;79.97;101766.66;4917516;29;20520;-76
2022/10/21 08:45:57;;;;;;;6.13;5.17;;;;;;;8.10;79.38;101771.25;4917322;29;20034;-75
2022/10/21 08:48:32;;;;;;;6.67;4.97;;;;;;;7.97;78.97;101757.25;4916889;29;20429;-76
2022/10/21 08:50:58;;;;;;;8.53;5.80;;;;;;;7.72;80.60;101756.53;4916900;29;20032;-76
2022/10/21 08:53:31;;;;;;;7.20;4.70;;;;;;;7.68;81.03;101770.16;4916805;29;20052;-76
2022/10/21 08:56:02;;;;;;;8.23;5.83;;;;;;;7.57;81.50;101768.34;4916990;29;20031;-77
2022/10/21 08:58:28;;;;;;;7.10;5.70;;;;;;;7.52;81.20;101757.25;4917014;29;20032;-76
2022/10/21 09:01:04;;;;;;;10.30;6.50;;;;;;;7.77;81.11;101778.22;4916898;29;20449;-77
2022/10/21 09:03:53;;;;;;;7.30;5.60;;;;;;;7.77;81.17;101749.06;4916876;29;20028;-76
2022/10/21 09:06:37;;;;;;;8.50;6.23;;;;;;;8.00;80.53;101780.91;4917007;29;20080;-77
2022/10/21 09:09:12;;;;;;;10.53;6.50;;;;;;;8.09;79.71;101777.50;4916937;29;20052;-75
2022/10/21 09:12:20;;;;;;;9.17;5.40;;;;;;;8.17;80.03;101777.75;4916630;29;20082;-76
2022/10/21 09:15:19;;;;;;;9.70;4.63;;;;;;;8.24;79.15;101778.09;4916460;29;20503;-76
2022/10/21 09:17:48;;;;;;;6.03;4.53;;;;;;;8.29;78.85;101776.75;4916684;29;20052;-77
2022/10/21 09:20:43;;;;;;;6.15;4.72;;;;;;;8.36;79.29;101774.50;4917335;29;20039;-76
2022/10/21 09:23:39;;;;;;;6.67;4.23;;;;;;;8.45;79.39;101778.22;4916766;29;20114;-77
2022/10/21 09:26:23;;;;;;;6.13;5.40;;;;;;;8.42;78.37;101775.81;4915694;29;20046;-77
2022/10/21 09:28:49;;;;;;;7.10;5.67;;;;;;;8.33;78.97;101788.84;4916449;29;20040;-75
2022/10/21 09:31:18;;;;;;;5.93;4.30;;;;;;;8.29;78.65;101782.06;4916409;29;20197;-76
2022/10/21 09:33:45;;;;;;;;;;;;;;;8.21;78.40;101788.97;4899784;29;20123;-76
2022/10/21 09:36:17;;;;;;;8.87;4.27;;;;;;;7.98;79.33;101765.09;4916536;29;19915;-76
2022/10/21 09:38:51;;;;;;;5.90;4.43;;;;;;;7.84;80.44;101764.50;4916315;29;20338;-76
2022/10/21 09:41:22;;;;;;;8.47;4.50;;;;;;;7.98;79.61;101786.31;4915902;29;20103;-75
2022/10/21 09:43:49;;;;;;;6.63;4.93;;;;;;;7.97;79.89;101781.13;4916293;29;20032;-76
2022/10/21 09:46:15;;;;;;;9.67;5.57;;;;;;;7.93;79.75;101774.38;4916295;29;20353;-76
2022/10/21 09:48:45;;;;;;;8.73;4.70;;;;;;;8.11;79.74;101785.38;4916133;29;20066;-75
2022/10/21 09:51:28;;;;;;;10.67;6.93;;;;;;;8.19;79.54;101777.63;4916152;29;20044;-75
2022/10/21 09:54:34;;;;;;;8.00;5.17;;;;;;;8.25;80.13;101785.09;4916147;29;20043;-73
2022/10/21 09:57:11;;;;;;;7.73;4.47;;;;;;;8.25;79.30;101782.44;4858030;29;20032;-72
2022/10/21 09:59:59;;;;;;;7.73;3.40;;;;;;;8.31;79.02;101779.28;4858010;29;20032;-73
2022/10/21 10:02:44;;;;;;;5.55;4.68;;;;;;;8.23;79.16;101768.47;4898744;29;20042;-73
2022/10/21 10:05:43;;;;;;;12.80;6.43;;;;;;;8.15;79.18;101779.69;4899011;29;20039;-72
2022/10/21 10:08:29;;;;;;;;;;;;;;;8.20;80.13;101782.81;4917975;29;20103;-75
2022/10/21 10:11:20;;;;;;;6.97;5.27;;;;;;;8.13;78.90;101781.63;4915683;29;19957;-74
2022/10/21 10:17:35;;;;;;;8.43;5.70;;;;;;;7.92;80.16;101773.53;4914491;29;20558;-76
2022/10/21 10:20:04;;;;;;;13.67;7.03;;;;;;;7.96;79.89;101782.09;4896278;29;20038;-75
2022/10/21 10:23:27;;;;;;;11.27;5.87;;;;;;;8.09;80.38;101780.16;4913906;29;20028;-76
2022/10/21 10:25:53;;;;;;;9.27;6.30;;;;;;;8.07;79.59;101763.50;4881646;29;20028;-75
2022/10/21 10:28:23;;;;;;;10.20;5.97;;;;;;;8.10;80.01;101786.34;4915469;29;20051;-75
2022/10/21 10:30:53;;;;;;;11.13;5.10;;;;;;;8.05;80.38;101760.16;4913588;29;20040;-74
2022/10/21 10:33:30;;;;;;;8.00;5.97;;;;;;;8.20;79.22;101774.00;4915289;29;20056;-75
2022/10/21 10:35:58;;;;;;;8.67;5.60;;;;;;;8.22;79.69;101764.97;4915544;29;20503;-75
2022/10/21 10:38:27;;;;;;;6.40;5.18;;;;;;;8.24;80.08;101744.44;4915649;29;20028;-76
2022/10/21 10:40:53;;;;;;;7.13;5.05;;;;;;;8.60;78.46;101758.38;4915052;29;20059;-76
2022/10/21 10:43:25;;;;;;;8.70;5.83;;;;;;;8.81;77.38;101766.41;4898346;29;20070;-74
2022/10/21 10:46:03;;;;;;;9.47;5.20;;;;;;;8.91;77.32;101764.66;4915387;29;20036;-75
2022/10/21 10:48:37;;;;;;;8.40;5.65;;;;;;;8.97;76.94;101757.06;4898808;29;20028;-79
2022/10/21 10:51:25;;;;;;;7.63;5.87;;;;;;;8.86;77.27;101759.75;4898519;29;20498;-77
2022/10/21 10:54:05;;;;;;;13.90;7.33;;;;;;;8.69;76.62;101755.00;4917736;29;20032;-74
2022/10/21 10:56:40;;;;;;;7.73;5.37;;;;;;;8.43;78.53;101750.97;4919240;29;20032;-77
2022/10/21 10:59:26;;;;;;;10.80;5.40;;;;;;;8.35;78.36;101760.38;4919468;29;20468;-77
2022/10/21 11:02:21;;;;;;;9.73;6.13;;;;;;;8.37;78.48;101763.75;4919349;29;20473;-73
2022/10/21 11:05:18;;;;;;;9.77;5.30;;;;;;;8.36;78.94;101755.91;4898022;29;20028;-71
2022/10/21 11:07:52;;;;;;;6.00;5.30;;;;;;;8.32;78.71;101752.63;4919248;29;20146;-72
2022/10/21 11:10:39;;;;;;;8.90;5.17;;;;;;;8.16;80.16;101760.16;4918875;29;20043;-73
2022/10/21 11:13:11;;;;;;;12.07;5.37;;;;;;;8.00;81.22;101760.50;4919093;29;20028;-73
2022/10/21 11:15:36;;;;;;;9.30;5.80;;;;;;;8.00;80.31;101770.28;4919335;29;20032;-73
2022/10/21 11:18:30;;;;;;;11.80;5.73;;;;;;;8.00;79.73;101760.50;4919370;29;20081;-74
2022/10/21 11:21:06;;;;;;;6.77;5.47;;;;;;;8.12;79.92;101764.03;4919224;29;20036;-72
2022/10/21 11:23:51;;;;;;;12.67;5.60;;;;;;;8.17;79.40;101756.53;4918457;29;20047;-73
2022/10/21 11:26:36;;;;;;;9.40;5.93;;;;;;;8.22;79.38;101758.81;4902346;29;20480;-71
2022/10/21 11:29:29;;;;;;;7.03;5.53;;;;;;;8.12;79.93;101764.03;4920134;29;20024;-71
2022/10/21 11:32:04;;;;;;;11.80;5.73;;;;;;;8.12;79.85;101764.03;4919288;29;20087;-74
2022/10/21 11:34:38;;;;;;;11.53;5.90;;;;;;;8.16;79.13;101767.28;4919068;29;20493;-74
2022/10/21 11:37:06;;;;;;;8.30;6.07;;;;;;;8.21;78.53;101762.44;4918877;29;20024;-75
2022/10/21 11:39:38;;;;;;;8.48;5.03;;;;;;;8.29;78.60;101760.84;4919587;29;20028;-75
2022/10/21 11:42:11;;;;;;;7.27;4.57;;;;;;;8.31;78.53;101758.91;4918612;29;20032;-76
2022/10/21 11:45:08;;;;;;;8.53;5.23;;;;;;;8.38;78.36;101762.81;4901885;29;20039;-76
2022/10/21 11:47:44;;;;;;;7.90;6.00;;;;;;;8.33;77.55;101767.63;4919300;29;20043;-75
2022/10/21 11:50:41;;;;;;;9.23;5.40;;;;;;;8.19;78.07;101753.75;4920859;29;20178;-75
2022/10/21 11:53:13;;;;;;;6.43;5.07;;;;;;;8.16;78.80;101746.88;4920833;29;20039;-76
2022/10/21 11:56:03;;;;;;;9.83;6.23;;;;;;;8.22;79.41;101748.19;4919707;29;20051;-72